Time;durP1;ratioP1;P1;durP2;ratioP2;P2;SDS_P1;SDS_P2;PMS_P1;PMS_P2;Temp;Humidity;BMP_temperature;BMP_pressure;BME280_temperature;BME280_humidity;BME280_pressure;Samples;Min_cycle;Max_cycle;Signal;HPM_P1;HPM_P2
2021/06/27 00:01:43;;;;;;;;;;;16.60;86.90;;;;;;5036412;28;20640;-69
2021/06/27 00:04:13;;;;;;;;;;;16.60;86.20;;;;;;5039077;28;19996;-66
2021/06/27 00:06:38;;;;;;;;;;;16.50;86.50;;;;;;5035458;28;20369;-67
2021/06/27 00:09:04;;;;;;;;;;;16.50;87.10;;;;;;5037178;28;19912;-70
2021/06/27 00:11:30;;;;;;;;;;;16.40;87.30;;;;;;5036788;28;20368;-68
2021/06/27 00:13:56;;;;;;;;;;;16.30;87.50;;;;;;5035227;28;19913;-67
2021/06/27 00:16:21;;;;;;;;;;;16.30;88.10;;;;;;5039035;28;20113;-65
2021/06/27 00:18:47;;;;;;;;;;;16.20;88.60;;;;;;5039288;28;20269;-67
2021/06/27 00:21:14;;;;;;;;;;;16.20;88.90;;;;;;5037616;28;19956;-69
2021/06/27 00:23:41;;;;;;;;;;;16.20;88.50;;;;;;5040739;28;19952;-67
2021/06/27 00:26:07;;;;;;;;;;;16.10;88.50;;;;;;5039399;28;19998;-67
2021/06/27 00:28:33;;;;;;;;;;;16.10;88.60;;;;;;5038883;28;20117;-67
2021/06/27 00:30:59;;;;;;;;;;;16.10;87.40;;;;;;5037806;28;20027;-67
2021/06/27 00:33:25;;;;;;;;;;;16.10;87.80;;;;;;5035779;28;19917;-67
2021/06/27 00:35:51;;;;;;;;;;;16.10;87.80;;;;;;5040557;28;19981;-69
2021/06/27 00:38:17;;;;;;;;;;;16.00;87.30;;;;;;5036720;28;20013;-67
2021/06/27 00:40:42;;;;;;;;;;;16.00;88.00;;;;;;5039780;28;19924;-66
2021/06/27 00:43:08;;;;;;;;;;;16.00;88.30;;;;;;5037811;28;20380;-67
2021/06/27 00:45:34;;;;;;;;;;;15.90;87.90;;;;;;5039335;28;19983;-67
2021/06/27 00:47:59;;;;;;;;;;;15.90;88.10;;;;;;5037731;28;20281;-67
2021/06/27 00:50:27;;;;;;;;;;;15.80;87.90;;;;;;5035383;28;19924;-67
2021/06/27 00:52:52;;;;;;;;;;;15.80;88.60;;;;;;5040183;28;19996;-67
2021/06/27 00:55:18;;;;;;;;;;;15.70;88.80;;;;;;5041594;28;20278;-67
2021/06/27 00:57:44;;;;;;;;;;;15.70;89.30;;;;;;5034118;28;19991;-67
2021/06/27 01:00:11;;;;;;;;;;;15.70;89.30;;;;;;5039202;28;20950;-67
2021/06/27 01:02:37;;;;;;;;;;;15.70;89.90;;;;;;5041526;28;20189;-67
2021/06/27 01:05:04;;;;;;;;;;;15.60;89.50;;;;;;5040841;28;19952;-67
2021/06/27 01:07:29;;;;;;;;;;;15.60;89.40;;;;;;5043762;28;19977;-68
2021/06/27 01:09:55;;;;;;;;;;;15.60;89.50;;;;;;5039497;28;19917;-68
2021/06/27 01:12:22;;;;;;;;;;;15.60;89.40;;;;;;5035437;28;20189;-67
2021/06/27 01:14:47;;;;;;;;;;;15.50;89.50;;;;;;5042196;28;19917;-68
2021/06/27 01:17:13;;;;;;;;;;;15.50;90.00;;;;;;5035125;28;19917;-67
2021/06/27 01:19:38;;;;;;;;;;;15.50;90.40;;;;;;5036846;28;19924;-67
2021/06/27 01:22:04;;;;;;;;;;;15.50;90.40;;;;;;5042336;28;19968;-68
2021/06/27 01:24:29;;;;;;;;;;;15.50;90.60;;;;;;5044509;28;20058;-67
2021/06/27 01:26:55;;;;;;;;;;;15.40;89.70;;;;;;5036110;28;19920;-69
2021/06/27 01:29:20;;;;;;;;;;;15.40;89.70;;;;;;5038056;28;20320;-68
2021/06/27 01:31:46;;;;;;;;;;;15.40;90.70;;;;;;5035028;28;19928;-67
2021/06/27 01:34:13;;;;;;;;;;;15.30;90.40;;;;;;5040716;28;19912;-67
2021/06/27 01:36:39;;;;;;;;;;;15.30;90.10;;;;;;5039582;28;19935;-66
2021/06/27 01:39:04;;;;;;;;;;;15.30;90.40;;;;;;5040759;28;19916;-67
2021/06/27 01:41:30;;;;;;;;;;;15.20;90.40;;;;;;5039897;28;19985;-67
2021/06/27 01:43:55;;;;;;;;;;;15.20;90.80;;;;;;5042863;28;20298;-67
2021/06/27 01:46:21;;;;;;;;;;;15.20;91.00;;;;;;5039706;28;19913;-68
2021/06/27 01:48:46;;;;;;;;;;;15.10;90.30;;;;;;5039933;28;19928;-68
2021/06/27 01:51:12;;;;;;;;;;;15.10;90.30;;;;;;5036495;28;20056;-66
2021/06/27 01:53:38;;;;;;;;;;;15.00;90.50;;;;;;5036915;28;19921;-66
2021/06/27 01:56:05;;;;;;;;;;;15.00;90.90;;;;;;5034852;28;19917;-68
2021/06/27 01:58:41;;;;;;;;;;;14.90;91.50;;;;;;5040781;28;20108;-67
2021/06/27 02:01:13;;;;;;;;;;;14.90;91.80;;;;;;5040523;28;19921;-68
2021/06/27 02:03:39;;;;;;;;;;;14.90;90.80;;;;;;5040786;28;20054;-68
2021/06/27 02:06:04;;;;;;;;;;;14.90;91.40;;;;;;5036805;28;20004;-68
2021/06/27 02:08:34;;;;;;;;;;;14.90;92.00;;;;;;5040312;28;20000;-68
2021/06/27 02:11:01;;;;;;;;;;;14.80;90.80;;;;;;5037681;28;20329;-66
2021/06/27 02:13:26;;;;;;;;;;;14.80;90.30;;;;;;5035642;28;20376;-65
2021/06/27 02:15:52;;;;;;;;;;;14.80;91.40;;;;;;5039317;28;20022;-66
2021/06/27 02:18:29;;;;;;;;;;;14.70;91.10;;;;;;5044416;28;20285;-68
2021/06/27 02:20:55;;;;;;;;;;;14.70;90.40;;;;;;5015626;28;19917;-68
2021/06/27 02:23:21;;;;;;;;;;;14.60;90.50;;;;;;5036843;28;19958;-66
2021/06/27 02:25:47;;;;;;;;;;;14.60;90.20;;;;;;5035116;28;19929;-65
2021/06/27 02:28:12;;;;;;;;;;;14.60;90.90;;;;;;5037530;28;19948;-64
2021/06/27 02:30:38;;;;;;;;;;;14.50;91.70;;;;;;5039158;28;19943;-68
2021/06/27 02:33:04;;;;;;;;;;;14.50;91.30;;;;;;5054278;28;20436;-67
2021/06/27 02:35:30;;;;;;;;;;;14.50;92.50;;;;;;5042049;28;20029;-65
2021/06/27 02:37:55;;;;;;;;;;;14.50;93.30;;;;;;5035727;28;19923;-66
2021/06/27 02:40:21;;;;;;;;;;;14.40;93.40;;;;;;5040871;28;19913;-67
2021/06/27 02:42:46;;;;;;;;;;;14.40;93.30;;;;;;5037740;28;20278;-65
2021/06/27 02:45:12;;;;;;;;;;;14.40;93.40;;;;;;5035988;28;19988;-67
2021/06/27 02:47:37;;;;;;;;;;;14.40;92.50;;;;;;5041350;28;19982;-66
2021/06/27 02:50:06;;;;;;;;;;;14.50;92.90;;;;;;5039669;28;20331;-67
2021/06/27 02:52:32;;;;;;;;;;;14.30;92.60;;;;;;5038365;28;20035;-65
2021/06/27 02:54:57;;;;;;;;;;;14.30;93.00;;;;;;5036509;28;20015;-65
2021/06/27 02:57:22;;;;;;;;;;;14.30;92.10;;;;;;5040095;28;19996;-65
2021/06/27 02:59:48;;;;;;;;;;;14.30;92.10;;;;;;5038272;28;19939;-68
2021/06/27 03:02:13;;;;;;;;;;;14.30;92.00;;;;;;5034047;28;19920;-66
2021/06/27 03:04:39;;;;;;;;;;;14.30;92.10;;;;;;5042224;28;20288;-66
2021/06/27 03:07:04;;;;;;;;;;;14.40;91.80;;;;;;5038110;28;19908;-65
2021/06/27 03:09:30;;;;;;;;;;;14.50;91.70;;;;;;5038025;28;20027;-66
2021/06/27 03:11:55;;;;;;;;;;;14.50;92.30;;;;;;5037918;28;19970;-66
2021/06/27 03:14:21;;;;;;;;;;;14.60;92.40;;;;;;5036335;28;20051;-65
2021/06/27 03:16:46;;;;;;;;;;;14.60;92.00;;;;;;5040475;28;20444;-64
2021/06/27 03:19:14;;;;;;;;;;;14.70;91.90;;;;;;5041686;28;19956;-66
2021/06/27 03:21:40;;;;;;;;;;;14.80;92.00;;;;;;5040162;28;20104;-67
2021/06/27 03:24:05;;;;;;;;;;;15.00;92.40;;;;;;5032853;28;19912;-66
2021/06/27 03:26:31;;;;;;;;;;;15.00;92.60;;;;;;5035391;28;19913;-66
2021/06/27 03:28:56;;;;;;;;;;;15.10;92.40;;;;;;5041822;28;19989;-67
2021/06/27 03:31:22;;;;;;;;;;;15.20;91.70;;;;;;5030715;28;20439;-64
2021/06/27 03:33:47;;;;;;;;;;;15.40;91.60;;;;;;5038572;28;19917;-65
2021/06/27 03:36:13;;;;;;;;;;;15.30;91.20;;;;;;5036138;28;19913;-67
2021/06/27 03:38:48;;;;;;;;;;;15.40;91.00;;;;;;5035796;28;19921;-65
2021/06/27 03:41:20;;;;;;;;;;;15.50;91.70;;;;;;5023035;28;19920;-65
2021/06/27 03:43:45;;;;;;;;;;;15.60;91.30;;;;;;5044858;28;20287;-65
2021/06/27 03:46:12;;;;;;;;;;;15.70;91.10;;;;;;5043860;28;20008;-66
2021/06/27 03:48:37;;;;;;;;;;;15.60;91.70;;;;;;5044503;28;19947;-67
2021/06/27 03:51:03;;;;;;;;;;;15.70;91.00;;;;;;5035909;28;19974;-65
2021/06/27 03:53:29;;;;;;;;;;;15.70;90.70;;;;;;5044869;28;20385;-65
2021/06/27 03:55:57;;;;;;;;;;;15.80;90.20;;;;;;5043036;28;19913;-67
2021/06/27 03:58:23;;;;;;;;;;;15.90;90.70;;;;;;5037113;28;20273;-67
2021/06/27 04:00:48;;;;;;;;;;;15.90;90.50;;;;;;5043995;28;19971;-68
2021/06/27 04:03:14;;;;;;;;;;;15.90;90.60;;;;;;5043015;28;19966;-66
2021/06/27 04:05:39;;;;;;;;;;;16.00;90.10;;;;;;5043827;28;19912;-67
2021/06/27 04:08:05;;;;;;;;;;;16.00;89.40;;;;;;5041301;28;19913;-68
2021/06/27 04:10:30;;;;;;;;;;;16.10;89.60;;;;;;5040704;28;20126;-67
2021/06/27 04:12:56;;;;;;;;;;;16.20;89.50;;;;;;5040889;28;20147;-67
2021/06/27 04:15:21;;;;;;;;;;;16.30;90.10;;;;;;5045034;28;19974;-67
2021/06/27 04:17:47;;;;;;;;;;;16.30;90.10;;;;;;5044077;28;19921;-67
2021/06/27 04:20:12;;;;;;;;;;;16.40;89.30;;;;;;5041836;28;19987;-66
2021/06/27 04:22:38;;;;;;;;;;;16.40;90.00;;;;;;5037325;28;19917;-66
2021/06/27 04:25:04;;;;;;;;;;;16.50;90.60;;;;;;5043074;28;19935;-67
2021/06/27 04:27:30;;;;;;;;;;;16.50;89.10;;;;;;5043488;28;19913;-66
2021/06/27 04:29:55;;;;;;;;;;;16.60;88.70;;;;;;5041150;28;19935;-66
2021/06/27 04:32:21;;;;;;;;;;;16.70;88.50;;;;;;5035827;28;19913;-68
2021/06/27 04:34:47;;;;;;;;;;;16.70;88.50;;;;;;5034049;28;20002;-66
2021/06/27 04:37:12;;;;;;;;;;;16.70;87.20;;;;;;5038957;28;20128;-66
2021/06/27 04:39:38;;;;;;;;;;;16.80;86.80;;;;;;5039660;28;19975;-66
2021/06/27 04:42:04;;;;;;;;;;;16.90;87.00;;;;;;5039946;28;20206;-67
2021/06/27 04:44:29;;;;;;;;;;;16.90;87.10;;;;;;5043009;28;20048;-69
2021/06/27 04:46:55;;;;;;;;;;;16.90;87.20;;;;;;5033947;28;19913;-66
2021/06/27 04:49:20;;;;;;;;;;;17.00;85.90;;;;;;5040397;28;19913;-65
2021/06/27 04:51:46;;;;;;;;;;;17.20;86.00;;;;;;5040612;28;20003;-66
2021/06/27 04:54:11;;;;;;;;;;;17.30;86.10;;;;;;5041265;28;19915;-66
2021/06/27 04:56:37;;;;;;;;;;;17.40;85.60;;;;;;5037334;28;20039;-67
2021/06/27 04:59:02;;;;;;;;;;;17.40;85.80;;;;;;5038034;28;19929;-67
2021/06/27 05:01:28;;;;;;;;;;;17.40;85.50;;;;;;5038915;28;19917;-66
2021/06/27 05:03:53;;;;;;;;;;;17.50;84.90;;;;;;5042264;28;19991;-66
2021/06/27 05:06:19;;;;;;;;;;;17.50;85.00;;;;;;5038643;28;20062;-67
2021/06/27 05:08:44;;;;;;;;;;;17.50;84.80;;;;;;5042304;28;19963;-66
2021/06/27 05:11:10;;;;;;;;;;;17.50;84.90;;;;;;5032360;28;19917;-68
2021/06/27 05:13:35;;;;;;;;;;;17.50;85.60;;;;;;5041803;28;19917;-66
2021/06/27 05:16:01;;;;;;;;;;;17.60;86.20;;;;;;5041518;28;20346;-66
2021/06/27 05:18:26;;;;;;;;;;;17.60;85.50;;;;;;5041800;28;19978;-67
2021/06/27 05:20:52;;;;;;;;;;;17.70;84.70;;;;;;5034074;28;20750;-66
2021/06/27 05:23:17;;;;;;;;;;;17.70;83.20;;;;;;5040770;28;19982;-66
2021/06/27 05:25:43;;;;;;;;;;;17.80;82.50;;;;;;5043157;28;20019;-67
2021/06/27 05:28:08;;;;;;;;;;;17.80;82.00;;;;;;5042649;28;19935;-67
2021/06/27 05:30:34;;;;;;;;;;;18.00;82.30;;;;;;5038976;28;19978;-66
2021/06/27 05:33:00;;;;;;;;;;;18.00;81.90;;;;;;5034072;28;19920;-67
2021/06/27 05:35:26;;;;;;;;;;;18.10;82.10;;;;;;5038039;28;20393;-66
2021/06/27 05:37:51;;;;;;;;;;;18.20;81.50;;;;;;5040312;28;19992;-67
2021/06/27 05:40:17;;;;;;;;;;;18.40;81.40;;;;;;5041936;28;19921;-69
2021/06/27 05:42:42;;;;;;;;;;;18.50;82.00;;;;;;5040183;28;19916;-66
2021/06/27 05:45:08;;;;;;;;;;;18.60;80.30;;;;;;5039948;28;19980;-68
2021/06/27 05:47:34;;;;;;;;;;;18.70;80.10;;;;;;5034492;28;20383;-66
2021/06/27 05:49:59;;;;;;;;;;;18.70;79.40;;;;;;5036386;28;19948;-67
2021/06/27 05:52:25;;;;;;;;;;;18.90;78.90;;;;;;5040963;28;20405;-66
2021/06/27 05:54:50;;;;;;;;;;;19.00;77.70;;;;;;5040748;28;20112;-67
2021/06/27 05:57:16;;;;;;;;;;;19.00;78.30;;;;;;5038958;28;19913;-66
2021/06/27 05:59:42;;;;;;;;;;;19.30;77.50;;;;;;5037871;28;19921;-67
2021/06/27 06:02:07;;;;;;;;;;;19.20;77.90;;;;;;5035810;28;20014;-67
2021/06/27 06:04:33;;;;;;;;;;;19.20;76.40;;;;;;5038600;28;20339;-68
2021/06/27 06:06:58;;;;;;;;;;;19.40;77.10;;;;;;5026798;28;19978;-67
2021/06/27 06:09:24;;;;;;;;;;;19.70;76.30;;;;;;5038717;28;20007;-67
2021/06/27 06:11:50;;;;;;;;;;;19.80;76.10;;;;;;5041663;28;19925;-66
2021/06/27 06:14:15;;;;;;;;;;;19.80;75.70;;;;;;5027356;28;20052;-68
2021/06/27 06:16:41;;;;;;;;;;;19.80;74.20;;;;;;5038103;28;19921;-67
2021/06/27 06:19:08;;;;;;;;;;;19.80;74.50;;;;;;5037412;28;19912;-68
2021/06/27 06:21:33;;;;;;;;;;;19.80;74.90;;;;;;5031360;28;20015;-69
2021/06/27 06:23:58;;;;;;;;;;;19.70;74.60;;;;;;5029753;28;20012;-66
2021/06/27 06:26:24;;;;;;;;;;;19.70;75.00;;;;;;5038412;28;19917;-68
2021/06/27 06:28:49;;;;;;;;;;;19.70;75.60;;;;;;5036356;28;19913;-66
2021/06/27 06:31:15;;;;;;;;;;;19.70;74.00;;;;;;5037197;28;19962;-68
2021/06/27 06:33:40;;;;;;;;;;;19.90;74.00;;;;;;5040561;28;19920;-68
2021/06/27 06:36:06;;;;;;;;;;;20.10;74.30;;;;;;5039950;28;19916;-68
2021/06/27 06:38:32;;;;;;;;;;;20.30;73.70;;;;;;5035368;28;19942;-69
2021/06/27 06:40:58;;;;;;;;;;;20.40;73.40;;;;;;5031537;28;20140;-67
2021/06/27 06:43:23;;;;;;;;;;;20.50;71.40;;;;;;5039371;28;20016;-68
2021/06/27 06:45:49;;;;;;;;;;;20.60;75.00;;;;;;5034368;28;19951;-66
2021/06/27 06:48:14;;;;;;;;;;;20.70;75.30;;;;;;5037436;28;20031;-68
2021/06/27 06:50:39;;;;;;;;;;;20.90;75.40;;;;;;5027059;28;19994;-66
2021/06/27 06:53:05;;;;;;;;;;;21.00;74.50;;;;;;5039315;28;20530;-67
2021/06/27 06:55:31;;;;;;;;;;;21.10;74.50;;;;;;5015591;28;19913;-66
2021/06/27 06:57:56;;;;;;;;;;;21.00;74.10;;;;;;5037324;28;19995;-68
2021/06/27 07:00:22;;;;;;;;;;;20.90;74.80;;;;;;5039495;28;19917;-68
2021/06/27 07:02:48;;;;;;;;;;;21.00;73.80;;;;;;5040669;28;19964;-67
2021/06/27 07:05:13;;;;;;;;;;;20.90;74.70;;;;;;5041237;28;19917;-69
2021/06/27 07:07:40;;;;;;;;;;;20.70;74.00;;;;;;5041685;28;20512;-68
2021/06/27 07:10:06;;;;;;;;;;;20.70;74.10;;;;;;5021271;28;19975;-68
2021/06/27 07:12:32;;;;;;;;;;;20.80;74.60;;;;;;5040000;28;20219;-68
2021/06/27 07:14:58;;;;;;;;;;;20.90;74.30;;;;;;5035262;28;20096;-67
2021/06/27 07:17:24;;;;;;;;;;;21.20;75.00;;;;;;5041993;28;19916;-68
2021/06/27 07:19:49;;;;;;;;;;;21.40;71.40;;;;;;5040265;28;19932;-67
2021/06/27 07:22:15;;;;;;;;;;;21.30;73.10;;;;;;5041077;28;20062;-68
2021/06/27 07:24:40;;;;;;;;;;;21.70;74.60;;;;;;5040643;28;19932;-67
2021/06/27 07:27:06;;;;;;;;;;;21.50;72.60;;;;;;5040117;28;20030;-68
2021/06/27 07:29:32;;;;;;;;;;;21.50;70.80;;;;;;5045121;28;19974;-67
2021/06/27 07:31:57;;;;;;;;;;;21.90;71.40;;;;;;5043710;28;20128;-67
2021/06/27 07:34:23;;;;;;;;;;;22.00;71.40;;;;;;5041514;28;19954;-68
2021/06/27 07:36:48;;;;;;;;;;;22.10;70.00;;;;;;5043674;28;19952;-66
2021/06/27 07:39:14;;;;;;;;;;;22.20;69.70;;;;;;5044091;28;20041;-69
2021/06/27 07:41:40;;;;;;;;;;;22.20;70.40;;;;;;5043905;28;19962;-69
2021/06/27 07:44:06;;;;;;;;;;;22.60;69.80;;;;;;5044714;28;20397;-68
2021/06/27 07:46:31;;;;;;;;;;;22.70;70.70;;;;;;5039557;28;19997;-70
2021/06/27 07:48:57;;;;;;;;;;;22.90;68.70;;;;;;5037014;28;20494;-67
2021/06/27 07:51:22;;;;;;;;;;;23.20;67.40;;;;;;5042966;28;19999;-68
2021/06/27 07:53:47;;;;;;;;;;;23.20;65.90;;;;;;5043032;28;19918;-69
2021/06/27 07:56:13;;;;;;;;;;;23.30;66.00;;;;;;5045722;28;19913;-68
2021/06/27 07:58:39;;;;;;;;;;;23.30;66.40;;;;;;5043643;28;20409;-69
2021/06/27 08:01:04;;;;;;;;;;;23.10;66.60;;;;;;5044042;28;20096;-69
2021/06/27 08:03:30;;;;;;;;;;;23.30;64.80;;;;;;5037827;28;19920;-68
2021/06/27 08:05:55;;;;;;;;;;;23.40;63.70;;;;;;5040050;28;19924;-68
2021/06/27 08:08:21;;;;;;;;;;;23.60;66.70;;;;;;5043341;28;19932;-70
2021/06/27 08:10:46;;;;;;;;;;;23.60;64.10;;;;;;5040849;28;19924;-68
2021/06/27 08:13:12;;;;;;;;;;;23.90;62.70;;;;;;5044693;28;20317;-68
2021/06/27 08:15:37;;;;;;;;;;;23.80;62.10;;;;;;5046101;28;19913;-68
2021/06/27 08:18:03;;;;;;;;;;;24.00;61.30;;;;;;5043453;28;20022;-70
2021/06/27 08:20:29;;;;;;;;;;;24.20;61.60;;;;;;5038620;28;19913;-68
2021/06/27 08:22:54;;;;;;;;;;;24.80;60.40;;;;;;5040854;28;19943;-71
2021/06/27 08:25:20;;;;;;;;;;;25.00;60.10;;;;;;5044862;28;20000;-69
2021/06/27 08:27:46;;;;;;;;;;;25.00;59.90;;;;;;5026186;28;20045;-69
2021/06/27 08:30:13;;;;;;;;;;;24.90;55.50;;;;;;5043195;28;20298;-68
2021/06/27 08:32:43;;;;;;;;;;;24.50;57.40;;;;;;5043518;28;19927;-68
2021/06/27 08:35:09;;;;;;;;;;;24.50;58.60;;;;;;5044583;28;20370;-70
2021/06/27 08:37:35;;;;;;;;;;;24.60;58.60;;;;;;5044087;28;19964;-69
2021/06/27 08:40:00;;;;;;;;;;;24.50;58.00;;;;;;5041307;28;19971;-68
2021/06/27 08:42:26;;;;;;;;;;;24.50;57.80;;;;;;5042131;28;19940;-69
2021/06/27 08:44:51;;;;;;;;;;;24.20;55.90;;;;;;5024916;28;19974;-68
2021/06/27 08:47:17;;;;;;;;;;;24.60;56.20;;;;;;5042185;28;20396;-69
2021/06/27 08:49:46;;;;;;;;;;;25.00;55.90;;;;;;5043261;28;19917;-69
2021/06/27 08:52:16;;;;;;;;;;;25.20;56.90;;;;;;5041087;28;19955;-70
2021/06/27 08:54:42;;;;;;;;;;;25.00;55.50;;;;;;5043873;28;19925;-69
2021/06/27 08:57:07;;;;;;;;;;;25.20;57.70;;;;;;5038140;28;19963;-68
2021/06/27 08:59:33;;;;;;;;;;;25.30;54.50;;;;;;5043674;28;19919;-69
2021/06/27 09:01:59;;;;;;;;;;;25.40;53.10;;;;;;5043061;28;20388;-69
2021/06/27 09:04:25;;;;;;;;;;;25.70;54.60;;;;;;5042856;28;19936;-70
2021/06/27 09:06:51;;;;;;;;;;;25.70;54.20;;;;;;5044090;28;19913;-68
2021/06/27 09:09:17;;;;;;;;;;;25.90;56.40;;;;;;5043511;28;19983;-70
2021/06/27 09:12:06;;;;;;;;;;;26.50;53.70;;;;;;5040879;28;19935;-69
2021/06/27 09:14:37;;;;;;;;;;;26.50;53.40;;;;;;5025288;28;19913;-68
2021/06/27 09:17:05;;;;;;;;;;;26.50;55.20;;;;;;5044765;28;20350;-68
2021/06/27 09:19:31;;;;;;;;;;;26.90;55.10;;;;;;5042777;28;19923;-69
2021/06/27 09:22:09;;;;;;;;;;;26.50;49.50;;;;;;5035079;28;20120;-69
2021/06/27 09:24:35;;;;;;;;;;;26.00;53.50;;;;;;5041354;28;20225;-69
2021/06/27 09:27:14;;;;;;;;;;;25.90;51.20;;;;;;5044098;28;19934;-69
2021/06/27 09:29:40;;;;;;;;;;;26.40;52.70;;;;;;5042954;28;20160;-68
2021/06/27 09:32:13;;;;;;;;;;;25.70;52.00;;;;;;5042149;28;20174;-68
2021/06/27 09:34:41;;;;;;;;;;;26.10;51.30;;;;;;5042617;28;19960;-69
2021/06/27 09:37:07;;;;;;;;;;;26.30;49.50;;;;;;5039378;28;19935;-68
2021/06/27 09:39:33;;;;;;;;;;;26.30;51.30;;;;;;5041416;28;19917;-69
2021/06/27 09:42:03;;;;;;;;;;;26.40;53.20;;;;;;5039901;28;20026;-69
2021/06/27 09:44:29;;;;;;;;;;;25.90;51.80;;;;;;5037957;28;20011;-71
2021/06/27 09:46:55;;;;;;;;;;;26.00;51.90;;;;;;5040437;28;20012;-68
2021/06/27 09:49:26;;;;;;;;;;;25.90;53.00;;;;;;5040170;28;20050;-66
2021/06/27 09:51:54;;;;;;;;;;;26.00;54.70;;;;;;5042544;28;20001;-68
2021/06/27 09:54:22;;;;;;;;;;;25.50;54.90;;;;;;5037997;28;20099;-67
2021/06/27 09:56:48;;;;;;;;;;;25.30;56.20;;;;;;5043089;28;19920;-68
2021/06/27 09:59:14;;;;;;;;;;;25.20;55.60;;;;;;5043058;28;19962;-68
2021/06/27 10:01:40;;;;;;;;;;;24.80;55.20;;;;;;5035916;28;19979;-68
2021/06/27 10:04:08;;;;;;;;;;;24.40;55.80;;;;;;5031587;28;19920;-67
2021/06/27 10:06:54;;;;;;;;;;;25.00;55.00;;;;;;5041222;28;20021;-68
2021/06/27 10:09:21;;;;;;;;;;;25.50;53.40;;;;;;5036872;28;20012;-67
2021/06/27 10:11:58;;;;;;;;;;;26.40;54.30;;;;;;5038290;28;19923;-68
2021/06/27 10:14:24;;;;;;;;;;;26.50;50.90;;;;;;5043885;28;20088;-69
2021/06/27 10:16:51;;;;;;;;;;;26.50;51.80;;;;;;5040535;28;19912;-68
2021/06/27 10:19:16;;;;;;;;;;;26.00;51.90;;;;;;5040877;28;20249;-68
2021/06/27 10:21:42;;;;;;;;;;;25.50;53.00;;;;;;5040249;28;19913;-68
2021/06/27 10:24:08;;;;;;;;;;;25.30;55.00;;;;;;5022824;28;19991;-68
2021/06/27 10:26:33;;;;;;;;;;;24.90;55.90;;;;;;5040351;28;19917;-70
2021/06/27 10:28:59;;;;;;;;;;;25.00;55.70;;;;;;5041937;28;19939;-68
2021/06/27 10:31:25;;;;;;;;;;;25.60;53.50;;;;;;5042571;28;20287;-68
2021/06/27 10:33:51;;;;;;;;;;;26.10;51.00;;;;;;5042016;28;19925;-68
2021/06/27 10:36:36;;;;;;;;;;;26.70;52.20;;;;;;5040811;28;19990;-70
2021/06/27 10:39:06;;;;;;;;;;;26.50;49.40;;;;;;5041980;28;19913;-68
2021/06/27 10:41:50;;;;;;;;;;;27.20;49.60;;;;;;5040291;28;19925;-70
2021/06/27 10:44:19;;;;;;;;;;;28.10;47.90;;;;;;5036947;28;19917;-68
2021/06/27 10:46:48;;;;;;;;;;;28.40;47.70;;;;;;5036487;28;20397;-68
2021/06/27 10:49:33;;;;;;;;;;;28.80;44.80;;;;;;5041557;28;19999;-69
2021/06/27 10:52:01;;;;;;;;;;;28.50;44.10;;;;;;5040057;28;19917;-68
2021/06/27 10:54:28;;;;;;;;;;;28.80;43.80;;;;;;5041917;28;19982;-68
2021/06/27 10:57:03;;;;;;;;;;;28.50;43.70;;;;;;5041333;28;19928;-69
2021/06/27 10:59:51;;;;;;;;;;;28.70;44.10;;;;;;5038623;28;20001;-70
2021/06/27 11:02:21;;;;;;;;;;;29.40;47.70;;;;;;5030809;28;20058;-68
2021/06/27 11:04:54;;;;;;;;;;;29.20;46.70;;;;;;5039434;28;19943;-68
2021/06/27 11:07:31;;;;;;;;;;;29.40;45.50;;;;;;5041699;28;19932;-67
2021/06/27 11:10:16;;;;;;;;;;;28.60;46.50;;;;;;5036058;28;19985;-68
2021/06/27 11:12:59;;;;;;;;;;;28.50;48.50;;;;;;5034063;28;19921;-68
2021/06/27 11:15:29;;;;;;;;;;;29.20;44.90;;;;;;5039523;28;19909;-69
2021/06/27 11:17:56;;;;;;;;;;;29.20;46.80;;;;;;5040995;28;19966;-68
2021/06/27 11:20:22;;;;;;;;;;;30.00;44.40;;;;;;5042296;28;19924;-69
2021/06/27 11:22:48;;;;;;;;;;;30.40;43.30;;;;;;5032557;28;19940;-68
2021/06/27 11:25:33;;;;;;;;;;;30.50;42.10;;;;;;5040513;28;19917;-69
2021/06/27 11:28:19;;;;;;;;;;;29.80;42.30;;;;;;5041278;28;20357;-67
2021/06/27 11:30:47;;;;;;;;;;;28.50;43.50;;;;;;5041667;28;20090;-68
2021/06/27 11:33:17;;;;;;;;;;;28.60;44.60;;;;;;5035522;28;19913;-68
2021/06/27 11:35:46;;;;;;;;;;;28.50;47.00;;;;;;5041308;28;19964;-67
2021/06/27 11:38:30;;;;;;;;;;;28.80;47.50;;;;;;5039980;28;19991;-70
2021/06/27 11:40:55;;;;;;;;;;;28.50;46.60;;;;;;5035526;28;20011;-68
2021/06/27 11:43:41;;;;;;;;;;;28.40;44.00;;;;;;5032092;28;20058;-70
2021/06/27 11:46:23;;;;;;;;;;;28.90;46.50;;;;;;5035432;28;19972;-69
2021/06/27 11:48:49;;;;;;;;;;;29.10;42.90;;;;;;5035312;28;19927;-68
2021/06/27 11:51:14;;;;;;;;;;;28.90;42.20;;;;;;5037615;28;19917;-69
2021/06/27 11:53:40;;;;;;;;;;;29.20;45.70;;;;;;5032163;28;20265;-69
2021/06/27 11:56:08;;;;;;;;;;;29.50;46.40;;;;;;5041011;28;20281;-67
2021/06/27 11:58:33;;;;;;;;;;;29.50;47.00;;;;;;5033988;28;19913;-67
2021/06/27 12:01:04;;;;;;;;;;;28.90;44.90;;;;;;5033198;28;20257;-68
2021/06/27 12:03:29;;;;;;;;;;;29.40;47.60;;;;;;5017078;28;19983;-66
2021/06/27 12:05:57;;;;;;;;;;;29.30;45.90;;;;;;5038185;28;20376;-69
2021/06/27 12:08:23;;;;;;;;;;;30.00;46.20;;;;;;5018600;28;19977;-68
2021/06/27 12:10:51;;;;;;;;;;;29.50;45.20;;;;;;5041125;28;20389;-67
2021/06/27 12:13:17;;;;;;;;;;;28.90;47.10;;;;;;5032797;28;19928;-68
2021/06/27 12:15:47;;;;;;;;;;;28.70;48.60;;;;;;5041717;28;19928;-66
2021/06/27 12:18:19;;;;;;;;;;;28.60;49.00;;;;;;5038790;28;19963;-68
2021/06/27 12:20:52;;;;;;;;;;;28.40;48.50;;;;;;5038361;28;20326;-68
2021/06/27 12:23:17;;;;;;;;;;;28.80;48.20;;;;;;5033104;28;20230;-67
2021/06/27 12:25:43;;;;;;;;;;;29.40;47.50;;;;;;5034642;28;20063;-70
2021/06/27 12:28:10;;;;;;;;;;;29.60;46.00;;;;;;5035279;28;19923;-68
2021/06/27 12:30:40;;;;;;;;;;;29.50;44.30;;;;;;5039730;28;19932;-67
2021/06/27 12:33:07;;;;;;;;;;;30.30;44.80;;;;;;5036695;28;19928;-67
2021/06/27 12:35:33;;;;;;;;;;;31.00;45.00;;;;;;5032857;28;19921;-68
2021/06/27 12:38:00;;;;;;;;;;;31.10;40.00;;;;;;5037497;28;20080;-68
2021/06/27 12:40:26;;;;;;;;;;;31.90;41.80;;;;;;5033328;28;19944;-68
2021/06/27 12:42:51;;;;;;;;;;;31.40;40.80;;;;;;5017377;28;19986;-68
2021/06/27 12:45:18;;;;;;;;;;;31.30;42.70;;;;;;5040650;28;20412;-68
2021/06/27 12:47:44;;;;;;;;;;;30.90;42.50;;;;;;5033605;28;20105;-68
2021/06/27 12:50:10;;;;;;;;;;;30.90;42.80;;;;;;5028924;28;19979;-68
2021/06/27 12:52:37;;;;;;;;;;;30.30;43.70;;;;;;5031067;28;21347;-67
2021/06/27 12:55:10;;;;;;;;;;;29.40;45.60;;;;;;5032002;28;19950;-67
2021/06/27 12:57:35;;;;;;;;;;;29.50;45.50;;;;;;5034819;28;19961;-67
2021/06/27 13:00:01;;;;;;;;;;;29.50;46.90;;;;;;5027338;28;19995;-67
2021/06/27 13:02:28;;;;;;;;;;;29.50;45.60;;;;;;5034332;28;20345;-67
2021/06/27 13:05:00;;;;;;;;;;;29.40;44.70;;;;;;5036395;28;19953;-69
2021/06/27 13:07:35;;;;;;;;;;;29.10;46.80;;;;;;5037385;28;20408;-68
2021/06/27 13:10:12;;;;;;;;;;;28.50;45.40;;;;;;5041718;28;20159;-66
2021/06/27 13:12:40;;;;;;;;;;;29.30;45.90;;;;;;5034822;28;19965;-66
2021/06/27 13:15:16;;;;;;;;;;;30.70;46.40;;;;;;5040905;28;20507;-67
2021/06/27 13:17:58;;;;;;;;;;;31.30;42.50;;;;;;5038376;28;19935;-66
2021/06/27 13:20:26;;;;;;;;;;;32.10;40.60;;;;;;5036714;28;19925;-67
2021/06/27 13:23:11;;;;;;;;;;;32.40;37.80;;;;;;5032442;28;19965;-67
2021/06/27 13:25:40;;;;;;;;;;;32.00;38.00;;;;;;5034262;28;20026;-68
2021/06/27 13:28:10;;;;;;;;;;;31.90;38.60;;;;;;5036076;28;20323;-66
2021/06/27 13:30:47;;;;;;;;;;;31.80;39.50;;;;;;5036553;28;20298;-67
2021/06/27 13:33:13;;;;;;;;;;;32.40;38.00;;;;;;5030568;28;20055;-70
2021/06/27 13:35:43;;;;;;;;;;;32.50;37.60;;;;;;5021017;28;19917;-67
2021/06/27 13:38:11;;;;;;;;;;;32.90;39.00;;;;;;5032737;28;20034;-67
2021/06/27 13:40:38;;;;;;;;;;;32.90;37.30;;;;;;5033537;28;19974;-68
2021/06/27 13:43:04;;;;;;;;;;;32.40;38.00;;;;;;5030431;28;19924;-67
2021/06/27 13:45:30;;;;;;;;;;;32.30;38.00;;;;;;5034398;28;20077;-67
2021/06/27 13:47:56;;;;;;;;;;;32.90;38.20;;;;;;5036864;28;20039;-67
2021/06/27 13:50:22;;;;;;;;;;;33.90;37.70;;;;;;5009822;28;20508;-68
2021/06/27 13:52:50;;;;;;;;;;;33.80;38.40;;;;;;5032611;28;19916;-69
2021/06/27 13:55:15;;;;;;;;;;;33.80;36.00;;;;;;5033014;28;19913;-67
2021/06/27 13:57:41;;;;;;;;;;;33.00;36.40;;;;;;5035163;28;19921;-68
2021/06/27 14:00:08;;;;;;;;;;;32.70;36.40;;;;;;5036438;28;19944;-68
2021/06/27 14:02:34;;;;;;;;;;;32.70;36.80;;;;;;5029462;28;21074;-68
2021/06/27 14:05:00;;;;;;;;;;;33.70;38.00;;;;;;5030499;28;20011;-66
2021/06/27 14:07:25;;;;;;;;;;;34.30;32.90;;;;;;5033752;28;19927;-66
2021/06/27 14:09:51;;;;;;;;;;;33.90;34.30;;;;;;5037961;28;19936;-68
2021/06/27 14:12:16;;;;;;;;;;;33.30;35.30;;;;;;5034671;28;19985;-68
2021/06/27 14:14:42;;;;;;;;;;;33.30;35.10;;;;;;5029756;28;20004;-67
2021/06/27 14:17:08;;;;;;;;;;;33.50;36.20;;;;;;5037267;28;20321;-68